مشهد, ایران

10:13 PM IRDT on ژوئیه 24, 2014 (GMT +0430)
Shahid Hashemi Nejad International (OIMM) Elev 3278 ft | 36.27 °N, 59.63 °E | Change Station

Current weather conditions updated 18 minutes ago

Clear
صاف
77 °F
Feels Like 77 °F
N
5
باد متغير باد from جنوب شرقی

Tomorrow is forecast to be nearly the same temperature as today.

امروز
High -- | Low -- °F
--% Chance of Precip.
دیروز
High -- | Low -- °F
Precip. -- در
5:31 AM 7:43 PM
Waning Crescent, 4% visible
فشار 29.95 در
ديد -9999.0 مايل، ميل (در برابر كيلومتر
ابری
قطره شبنم 34 °F
رطوبت 21%
بارش باران 0.00 در
برف عمیق Not available.
مادون قرمز Not available.
Pollen Not available.
تمیزی هوا Not available.
Flu Activity Not available.
METAR OIMM 241725Z 14004KT CAVOK 25/01 Q1014 A2997

More Conditions Fewer Conditions

فشار 29.95 در
ديد -9999.0 مايل، ميل (در برابر كيلومتر
ابری
قطره شبنم 34 °F
رطوبت 21%
بارش باران 0.00 در
برف عمیق Not available.
مادون قرمز Not available.
Pollen Not available.
تمیزی هوا Not available.
Flu Activity Not available.
METAR OIMM 241725Z 14004KT CAVOK 25/01 Q1014 A2997

More Conditions Fewer Conditions

10-Day Weather Forecast

Almanac

ستاره شناسی

Jul. 24, 2014 Rise Set
وقت حقیقی 5:31 AM IRDT 7:43 PM IRDT
تاریک و روشن اجتماعی 5:02 AM IRDT 8:12 PM IRDT
تاریک روشن دریایی 4:27 AM IRDT 8:48 PM IRDT
شفق و فلق نجومی 3:48 AM IRDT 9:26 PM IRDT
ماه 3:18 AM IRDT 5:40 PM IRDT
میزان روشنایی روز 15h 10m
طول روز
14h 12m
Tomorrow will be 1m 29s shorter.
Waning Crescent, 4% of the Moon is Illuminated
امروز
Waning Crescent
Jul 26
New
Aug 3
ربع اول
Aug 10
ماه کامل
Aug 17
ربع آخر

Today's Extremes

Country Highs Country Lows

Community

WunderPhotos

Upload Photos

1,737,079 photos uploaded!

Nearby

تمیزی هوا

Not available.

عمق برف

Not available.

Earthquake Activity

شهر Distance Mag. Time & Date
No recent earthquake activity has been reported nearby.
Minimum magnitude displayed is 2.5.

Coastal Water Temperatures

منطقه درجه حرارت
No Stations Reporting

Nearby Weather Stations

There are no personal weather stations in this area.